Latest Weather Observations for Salmon Gums RS

IDW60801

Issued at 6:02 pm WST Sunday 25 January 2015 (issued every 30 minutes, with the page automatically refreshed every 10 minutes)

About weather observations | Map of weather stations | Latest weather observations for WA | Other Formats
Station Details ID: 012071 Name: SALMON GUMS RES.STN. Lat: -32.99 Lon: 121.62 Height: 249.0 m
Data from the previous 72 hours. | See also: Recent months at Salmon Gums RS
Date/Time
WST
Temp
°C
App
Temp
°C
Dew
Point
Rel
Hum
%
Delta-T
°C
Wind Press
QNH
hPa
Press
MSL
hPa
Rain
since 9 am
mm
Dir
 
Spd
km/h
Gust
km/h
Spd
kts
Gust
kts
25/06:00pm 22.7 16.4 7.3 37 8.1 SSE 30 41 16 22 - - 0.0
25/05:30pm 24.1 17.7 6.8 33 9.1 SSE 30 41 16 22 - - 0.0
25/05:00pm 25.1 18.9 6.3 30 9.8 SSE 28 41 15 22 - - 0.0
25/04:30pm 26.6 21.9 6.1 27 10.8 ESE 20 33 11 18 - - 0.0
25/04:00pm 26.4 22.3 4.2 24 11.3 SE 15 26 8 14 - - 0.0
25/03:30pm 27.2 22.7 4.3 23 11.7 SSE 17 24 9 13 - - 0.0
25/03:00pm 26.7 23.0 4.5 24 11.4 ESE 13 28 7 15 - - 0.0
25/02:30pm 26.8 23.1 4.6 24 11.4 ESE 13 30 7 16 - - 0.0
25/02:00pm 26.4 21.6 4.8 25 11.1 SSE 19 28 10 15 - - 0.0
25/01:30pm 26.4 22.9 5.4 26 10.9 SSE 13 28 7 15 - - 0.0
25/01:00pm 24.5 21.2 4.8 28 10.0 SE 11 22 6 12 - - 0.0
25/12:30pm 23.8 20.9 4.7 29 9.6 E 9 22 5 12 - - 0.0
25/12:00pm 23.6 20.0 5.0 30 9.4 ENE 13 44 7 24 - - 0.0
25/11:30am 23.3 19.6 6.1 33 8.9 SE 15 24 8 13 - - 0.0
25/11:00am 21.6 17.7 5.5 35 8.1 E 15 24 8 13 - - 0.0
25/10:30am 21.2 17.4 5.6 36 7.9 ESE 15 24 8 13 - - 0.0
25/10:00am 20.4 16.4 6.7 41 7.0 ESE 17 30 9 16 - - 0.0
25/09:30am 19.7 15.7 6.8 43 6.6 SE 17 28 9 15 - - 0.0
25/09:00am 19.8 16.7 7.2 44 6.5 SSE 13 28 7 15 - - 0.0
25/08:30am 18.4 15.0 7.8 50 5.5 SE 15 22 8 12 - - 0.0
25/08:00am 17.0 13.9 7.4 53 4.9 ESE 13 26 7 14 - - 0.0
25/07:30am 16.8 13.7 7.4 54 4.8 SE 13 19 7 10 - - 0.0
25/07:00am 16.0 12.1 7.2 56 4.4 SE 17 24 9 13 - - 0.0
25/06:30am 16.4 12.5 7.1 54 4.7 ESE 17 24 9 13 - - 0.0
25/06:00am 15.5 11.6 7.3 58 4.1 SSE 17 22 9 12 - - 0.0
25/05:30am 15.4 12.0 7.7 60 3.9 SE 15 20 8 11 - - 0.0
25/05:00am 15.3 12.7 7.8 61 3.8 SE 11 17 6 9 - - 0.0
25/04:30am 15.3 12.3 7.8 61 3.8 SE 13 19 7 10 - - 0.0
25/04:00am 15.3 12.0 8.1 62 3.7 SE 15 19 8 10 - - 0.0
25/03:30am 15.1 12.5 7.9 62 3.6 SSE 11 19 6 10 - - 0.0
25/03:00am 15.2 12.3 8.0 62 3.7 SSE 13 19 7 10 - - 0.0
25/02:30am 15.6 12.7 8.1 61 3.8 SSE 13 19 7 10 - - 0.0
25/02:00am 15.7 12.5 8.4 62 3.7 SSE 15 20 8 11 - - 0.0
25/01:30am 15.9 12.7 8.6 62 3.8 SSE 15 20 8 11 - - 0.0
25/01:00am 16.0 12.6 9.0 63 3.6 SE 17 22 9 12 - - 0.0
25/12:30am 15.6 12.4 8.4 62 3.7 SE 15 20 8 11 - - 0.0
25/12:00am 15.2 12.7 8.2 63 3.6 SE 11 15 6 8 - - 0.0
 
Date/Time
WST
Temp
°C
App
Temp
°C
Dew
Point
Rel
Hum
%
Delta-T
°C
Wind Press
QNH
hPa
Press
MSL
hPa
Rain
since 9 am
mm
Dir
 
Spd
km/h
Gust
km/h
Spd
kts
Gust
kts
24/11:30pm 15.9 12.5 9.3 65 3.5 SSE 17 22 9 12 - - 0.0
24/11:00pm 16.3 13.3 10.6 69 3.1 SSE 17 24 9 13 - - 0.0
24/10:30pm 16.2 12.8 10.7 70 3.0 SE 19 24 10 13 - - 0.0
24/10:00pm 16.1 14.0 11.1 72 2.7 SSE 13 19 7 10 - - 0.0
24/09:30pm 16.1 14.1 11.5 74 2.5 S 13 20 7 11 - - 0.0
24/09:00pm 16.1 13.4 10.4 69 3.1 S 15 24 8 13 - - 0.0
24/08:30pm 16.5 13.6 11.0 70 3.0 S 17 26 9 14 - - 0.0
24/08:00pm 17.1 14.1 10.7 66 3.5 SSE 17 24 9 13 - - 0.0
24/07:30pm 17.7 13.8 10.8 64 3.8 S 22 30 12 16 - - 0.0
24/07:00pm 18.6 14.4 9.9 57 4.7 S 22 32 12 17 - - 0.0
24/06:30pm 19.8 15.4 9.1 50 5.7 S 22 28 12 15 - - 0.0
24/06:00pm 20.9 16.3 8.2 44 6.7 S 22 33 12 18 - - 0.0
24/05:30pm 22.4 18.3 7.8 39 7.7 S 19 30 10 16 - - 0.0
24/05:00pm 23.1 18.8 8.0 38 8.0 S 20 30 11 16 - - 0.0
24/04:30pm 24.6 19.6 8.1 35 8.9 S 24 33 13 18 - - 0.0
24/04:00pm 25.1 20.2 8.6 35 9.0 SSW 24 37 13 20 - - 0.0
24/03:30pm 25.2 20.5 7.8 33 9.3 SSW 22 35 12 19 - - 0.0
24/03:00pm 25.7 21.0 7.8 32 9.6 S 22 33 12 18 - - 0.0
24/02:30pm 26.2 22.1 8.7 33 9.6 S 20 33 11 18 - - 0.0
24/02:00pm 26.5 22.6 9.4 34 9.5 S 20 32 11 17 - - 0.0
24/01:30pm 26.6 22.1 8.6 32 9.9 SSW 22 39 12 21 - - 0.0
24/01:00pm 25.9 22.1 7.5 31 9.9 SW 17 33 9 18 - - 0.0
24/12:30pm 25.0 20.3 7.6 33 9.3 SW 22 33 12 18 - - 0.0
24/12:00pm 25.0 21.2 7.6 33 9.3 SW 17 32 9 17 - - 0.0
24/11:30am 24.3 20.2 7.9 35 8.8 SSW 19 28 10 15 - - 0.0
24/11:00am 24.4 21.0 9.2 38 8.3 SSW 17 30 9 16 - - 0.0
24/10:30am 22.9 19.0 8.6 40 7.7 SW 19 28 10 15 - - 0.0
24/10:00am 21.9 18.9 9.1 44 6.9 SW 15 26 8 14 - - 0.0
24/09:30am 21.2 17.4 9.1 46 6.5 SSW 19 26 10 14 - - 0.0
24/09:00am 21.0 18.0 9.3 47 6.3 SSW 15 28 8 15 - - 0.0
24/08:30am 19.6 16.7 9.5 52 5.4 SW 15 24 8 13 - - 0.0
24/08:00am 19.1 15.3 9.0 52 5.4 SSW 19 28 10 15 - - 0.0
24/07:30am 17.9 15.8 9.8 59 4.3 WSW 11 22 6 12 - - 0.0
24/07:00am 17.4 14.9 9.8 61 4.1 SW 13 19 7 10 - - 0.0
24/06:30am 17.0 15.4 10.1 64 3.7 SW 9 17 5 9 - - 0.0
24/06:00am 16.3 14.6 9.9 66 3.4 SW 9 15 5 8 - - 0.0
24/05:30am 16.0 13.2 10.1 68 3.1 SW 15 24 8 13 - - 0.0
24/05:00am 15.7 13.7 10.2 70 2.9 SW 11 19 6 10 - - 0.0
24/04:30am 15.8 14.2 10.3 70 2.9 SSW 9 17 5 9 - - 0.0
24/04:00am 16.0 14.2 10.7 71 2.9 SW 11 17 6 9 - - 0.0
24/03:30am 16.0 13.9 11.0 72 2.7 SSW 13 22 7 12 - - 0.0
24/03:00am 16.1 12.7 11.1 72 2.7 SSW 20 28 11 15 - - 0.0
24/02:30am 16.3 14.1 12.1 76 2.3 SSW 15 20 8 11 - - 0.0
24/02:00am 15.6 14.1 12.0 79 2.0 SSW 11 19 6 10 - - 0.0
24/01:30am 15.4 13.7 12.3 82 1.7 SSW 13 20 7 11 - - 0.0
24/01:00am 15.0 13.7 12.5 85 1.4 SSW 11 17 6 9 - - 0.0
24/12:30am 15.2 13.5 12.5 84 1.5 SSW 13 19 7 10 - - 0.0
24/12:00am 15.3 13.1 12.2 82 1.7 SSW 15 20 8 11 - - 0.0
 
Date/Time
WST
Temp
°C
App
Temp
°C
Dew
Point
Rel
Hum
%
Delta-T
°C
Wind Press
QNH
hPa
Press
MSL
hPa
Rain
since 9 am
mm
Dir
 
Spd
km/h
Gust
km/h
Spd
kts
Gust
kts
23/11:30pm 15.6 13.4 12.2 80 1.9 SSW 15 20 8 11 - - 0.0
23/11:00pm 15.7 13.1 12.1 79 2.0 S 17 24 9 13 - - 0.0
23/10:30pm 15.9 13.5 11.3 74 2.5 S 15 22 8 12 - - 0.0
23/10:00pm 16.5 13.9 10.8 69 3.1 S 15 20 8 11 - - 0.0
23/09:30pm 17.3 14.4 9.7 61 4.0 S 15 20 8 11 - - 0.0
23/09:00pm 17.6 15.7 9.0 57 4.5 SSE 9 13 5 7 - - 0.0
23/08:30pm 18.2 16.6 8.7 54 5.0 SSE 7 9 4 5 - - 0.0
23/08:00pm 19.4 17.3 8.4 49 5.8 SSE 9 13 5 7 - - 0.0
23/07:30pm 20.9 17.8 7.2 41 7.1 SSE 13 19 7 10 - - 0.0
23/07:00pm 22.2 18.4 6.0 35 8.3 S 15 22 8 12 - - 0.0
23/06:30pm 24.0 18.7 4.9 29 9.7 S 22 32 12 17 - - 0.0
23/06:00pm 25.5 21.1 8.9 35 9.1 S 22 30 12 16 - - 0.0
23/05:30pm 27.3 23.5 9.2 32 10.1 S 19 24 10 13 - - 0.0
23/05:00pm 26.9 22.6 9.3 33 9.8 SSW 22 33 12 18 - - 0.0
23/04:30pm 28.6 23.5 9.3 30 10.8 S 26 35 14 19 - - 0.0
23/04:00pm 29.3 25.8 7.2 25 12.0 SSW 15 24 8 13 - - 0.0
23/03:30pm 28.7 25.7 6.1 24 12.0 SW 11 20 6 11 - - 0.0
23/03:00pm 29.8 26.0 5.8 22 12.8 SSW 15 24 8 13 - - 0.0
23/02:30pm 29.7 26.8 6.4 23 12.5 SSW 11 22 6 12 - - 0.0
23/02:00pm 29.1 26.9 7.7 26 11.7 SSW 9 20 5 11 - - 0.0
23/01:30pm 28.0 25.0 6.2 25 11.6 SSW 11 17 6 9 - - 0.0
23/01:00pm 26.9 24.1 6.9 28 10.7 S 11 24 6 13 - - 0.0
23/12:30pm 26.5 24.2 7.5 30 10.2 SSW 9 33 5 18 - - 0.0
23/12:00pm 26.0 24.5 8.5 33 9.6 S 6 13 3 7 - - 0.0
23/11:30am 24.6 23.1 9.0 37 8.5 SSE 7 15 4 8 - - 0.0
23/11:00am 24.0 22.7 9.2 39 8.1 SW 6 11 3 6 - - 0.0
23/10:30am 22.8 20.6 9.2 42 7.4 S 11 19 6 10 - - 0.0
23/10:00am 23.2 22.1 10.6 45 7.0 SSE 7 20 4 11 - - 0.0
23/09:30am 21.3 20.0 9.9 48 6.2 SSW 7 13 4 7 - - 0.0
23/09:00am 20.8 19.6 10.3 51 5.8 SSW 7 13 4 7 - - 0.0
23/08:30am 19.7 18.2 10.7 56 4.9 SW 9 15 5 8 - - 0.0
23/08:00am 19.0 17.9 10.8 59 4.5 SE 7 13 4 7 - - 0.0
23/07:30am 18.5 17.1 10.8 61 4.2 SSW 9 17 5 9 - - 0.0
23/07:00am 17.7 17.2 10.6 63 3.8 SW 4 6 2 3 - - 0.0
23/06:30am 16.9 16.8 10.7 67 3.4 WSW 2 4 1 2 - - 0.0
23/06:00am 14.9 14.7 10.5 75 2.3 WSW 2 4 1 2 - - 0.0
23/05:30am 13.2 12.7 9.3 77 2.0 SW 2 4 1 2 - - 0.0
23/05:00am 14.4 13.5 9.4 72 2.6 SSW 4 6 2 3 - - 0.0
23/04:30am 15.8 14.7 10.1 69 3.0 SSW 6 9 3 5 - - 0.0
23/04:00am 16.2 14.9 10.1 67 3.2 SSW 7 13 4 7 - - 0.0
23/03:30am 16.3 16.5 10.6 69 3.1 CALM 0 0 0 0 - - 0.0
23/03:00am 16.2 16.4 10.7 70 3.0 CALM 0 0 0 0 - - 0.0
23/02:30am 16.1 16.4 10.8 71 2.9 CALM 0 0 0 0 - - 0.0
23/02:00am 16.1 15.3 11.1 72 2.7 SSW 6 9 3 5 - - 0.0
23/01:30am 16.1 15.3 11.1 72 2.7 SSW 6 9 3 5 - - 0.0
23/01:00am 16.2 15.3 11.2 72 2.7 S 7 11 4 6 - - 0.0
23/12:30am 16.2 14.5 11.2 72 2.7 S 11 17 6 9 - - 0.0
23/12:00am 16.3 14.6 11.2 72 2.8 S 11 17 6 9 - - 0.0
 
Date/Time
WST
Temp
°C
App
Temp
°C
Dew
Point
Rel
Hum
%
Delta-T
°C
Wind Press
QNH
hPa
Press
MSL
hPa
Rain
since 9 am
mm
Dir
 
Spd
km/h
Gust
km/h
Spd
kts
Gust
kts
22/11:30pm 16.3 14.6 11.2 72 2.8 S 11 15 6 8 - - 0.0
22/11:00pm 16.0 14.7 11.4 74 2.5 S 9 13 5 7 - - 0.0
22/10:30pm 15.5 14.2 11.3 76 2.3 SSE 9 11 5 6 - - 0.0
22/10:00pm 14.6 13.2 10.8 78 2.0 S 9 11 5 6 - - 0.0
22/09:30pm 15.2 13.8 10.8 75 2.4 S 9 13 5 7 - - 0.0
22/09:00pm 15.8 14.0 10.8 72 2.7 S 11 19 6 10 - - 0.0
22/08:30pm 16.6 13.7 11.1 70 3.0 S 17 24 9 13 - - 0.0
22/08:00pm 17.2 13.9 10.8 66 3.5 S 19 26 10 14 - - 0.0
22/07:30pm 17.9 14.9 10.8 63 3.9 S 17 24 9 13 - - 0.0
22/07:00pm 18.7 14.7 10.5 59 4.5 S 22 32 12 17 - - 0.0
22/06:30pm 20.1 15.6 10.2 53 5.4 S 24 32 13 17 - - 0.0

Other Formats:

Comma delimited format used in spreadsheet applications
http://www.bom.gov.au/fwo/IDW60801/IDW60801.95639.axf

JavaScript Object Notation format (JSON) in row-major order
http://www.bom.gov.au/fwo/IDW60801/IDW60801.95639.json